Black Diamond, WA (98010)

2:57 PM PDT on September 03, 2015 (GMT -0700)
Lake Sawyer | | Change Station
CLOSE
Current Station
Personal Weather Station
Location: Black Diamond, WA
Elevation: 551 ft
Nearby Weather Stations

Elev 551 ft 47.33 °N, 122.03 °W | Updated 28 minutes ago

Overcast
Overcast
58.2 °F
Feels Like 58.2 °F
N
1.0
Wind Variable Wind from NW
Gusts 4.0 mph

Today
High -- | Low -- °F
--% Chance of Precip.
Yesterday
High -- | Low -- °F
Precip. -- in
6:29 AM 7:44 PM
Waning Gibbous, 66% visible
Pressure 30.01 in
Visibility 5.0 miles
Clouds Clear
Dew Point 49 °F
Humidity 71%
Rainfall 0.00 in
Snow Depth Not available.
UV 6 out of 12
Pollen 1.50 out of 12
Air Quality Not available.
Flu Activity Not available.
METAR KRNT 032153Z VRB05G14KT 5SM HZ CLR 18/07 A2999 RMK AO2 SLP160 T01830072
Pressure 30.01 in
Visibility 5.0 miles
Clouds Clear
Dew Point 49 °F
Humidity 71%
Rainfall 0.00 in
Snow Depth Not available.
UV 6 out of 12
Pollen 1.50 out of 12
Air Quality Not available.
Flu Activity Not available.
METAR KRNT 032153Z VRB05G14KT 5SM HZ CLR 18/07 A2999 RMK AO2 SLP160 T01830072

10-Day Weather Forecast

×

Almanac

Astronomy

Sep. 03, 2015 Rise Set
Actual Time
Civil Twilight
Nautical Twilight
Astronomical Twilight
Moon
Length of Visible Light
Length of Day
Tomorrow will be .
, % of the Moon is Illuminated

Today's Extremes

State Highs State Lows

Community

WunderPhotos

Upload Photos

1,852,045 photos uploaded!

WunderBlogs® & News

Nearby

Air Quality

  Air Quality AQ Index Pollutant
Not available.

Snow Depth

Station Depth Elevation

Earthquake Activity

City Distance Mag. Time & Date
Minimum magnitude displayed is 2.5.

Coastal Water Temperatures

Place Temperature

Stations

Nearby Weather Stations

Station Location Temp. Windchill Dew Point Humidity Wind Precip. Elev Updated Type